Chennai, India
Current Conditions -  °F | °C
As of 1:40 PM on Friday 31 Oct 2014 (Local Time) from VOMM Reporting Station
Haze Haze  
Wind Chill: 84°   Ceiling: Unl
Heat Index: 92°   Visibility: 3mi
Dew Point: 75°   Wind: 9mph
Humidity: 74%   Direction: 10°N
Pressure: 29.77"   Gusts: NA
Location:  13.06°N, 80.25°E
Report Text: VOMM 310840Z 01008KT 5000 HZ SCT020 29/24 Q1008 NOSIG
Loading
Personal Weather Stations






























Interactive Weather Map
Tropical Storm Tracking
New forecast layout! Learn more

10-Day Weather Forecast

Advertisements
Track Severe Weather on mobile